ZSPD/PVG METAR and TAF weather

Enter ICAO airport designator
Station Type Date Time Source
ZSPD METAR 2019/12/07 07:30 UTC NOAA

ZSPD 070730Z 36005MPS CAVOK 10/M02 Q1032 NOSIG


Station Type Date Time Source
ZSPD Decoded METAR 2019/12/07 07:30 UTC NOAA

Shanghai / Pudong, China (ZSPD) 31-07N 121-46E
Dec 07, 2019 - 02:30 AM EST / 2019.12.07 0730 UTC
Wind: from the N (360 degrees) at 11 MPH (10 KT):0
Visibility: greater than 7 mile(s):0
Temperature: 50 F (10 C)
Dew Point: 28 F (-2 C)
Relative Humidity: 42%
Pressure (altimeter): 30.47 in. Hg (1032 hPa)
ob: ZSPD 070730Z 36005MPS CAVOK 10/M02 Q1032 NOSIG
cycle: 7

Station Type Date Time Source
ZSPD TAF 2019/12/07 06:03 UTC NOAA

TAF ZSPD 070311Z 0706/0806 35004MPS 5000 BR SCT020 TX12/0706Z TN03/0721Z

Example: see airport list